Connor Township, Maine
Current Conditions -  °F | °C
As of 1:44 PM on Saturday 25 Oct 2014 (Local Time) from KCAR Reporting Station
Light Rain Light Rain  
Wind Chill: 40°   Ceiling: 1000
Heat Index: 43°   Visibility: 5mi
Dew Point: 40°   Wind: 5mph
Humidity: 89%   Direction: 350°N
Pressure: 29.57"   Gusts: NA
Location:  46.8928°N, 68.1493°W
Report Text: KCAR 251744Z AUTO 35004KT 5SM -RA BR SCT006 BKN010 OVC050 06/04 A2957 RMK AO2 P0002 T00610044 $
Loading
Personal Weather Stations






























Interactive Weather Map
Tropical Storm Tracking
New forecast layout! Learn more

10-Day Weather Forecast

Advertisements
Track Severe Weather on mobile